Time;durP1;ratioP1;P1;durP2;ratioP2;P2;SDS_P1;SDS_P2;PMS_P1;PMS_P2;Temp;Humidity;BMP_temperature;BMP_pressure;BME280_temperature;BME280_humidity;BME280_pressure;Samples;Min_cycle;Max_cycle;Signal;HPM_P1;HPM_P2
2021/01/06 00:00:25;;;;;;;12.98;6.00;;;15.40;62.70;;;;;;1045500;28;20017;-72
2021/01/06 00:00:56;;;;;;;12.30;5.80;;;15.30;62.70;;;;;;1042020;28;20028;-72
2021/01/06 00:01:29;;;;;;;14.57;6.50;;;15.30;62.60;;;;;;1043442;28;20071;-72
2021/01/06 00:02:00;;;;;;;12.95;5.82;;;15.30;62.70;;;;;;1041662;28;20022;-72
2021/01/06 00:02:31;;;;;;;14.95;6.63;;;15.30;62.80;;;;;;1045434;28;20044;-73
2021/01/06 00:03:03;;;;;;;12.48;5.72;;;15.30;62.70;;;;;;1040181;28;20352;-72
2021/01/06 00:03:35;;;;;;;16.38;6.22;;;15.30;62.80;;;;;;1038809;28;20034;-71
2021/01/06 00:04:06;;;;;;;12.88;5.82;;;15.30;62.70;;;;;;1041664;28;20488;-73
2021/01/06 00:04:37;;;;;;;12.18;5.93;;;15.30;62.50;;;;;;1045026;28;20021;-73
2021/01/06 00:05:15;;;;;;;13.70;5.82;;;15.30;62.70;;;;;;1042356;28;20031;-73
2021/01/06 00:05:51;;;;;;;14.35;6.20;;;15.30;62.80;;;;;;1039178;28;20037;-72
2021/01/06 00:06:30;;;;;;;14.60;6.35;;;15.30;62.90;;;;;;1036987;28;20121;-73
2021/01/06 00:07:01;;;;;;;13.20;5.85;;;15.30;63.00;;;;;;1039988;28;20044;-73
2021/01/06 00:07:33;;;;;;;12.77;5.90;;;15.20;63.00;;;;;;1038931;28;20014;-73
2021/01/06 00:08:04;;;;;;;14.60;5.55;;;15.20;63.10;;;;;;1041125;28;20013;-73
2021/01/06 00:08:36;;;;;;;15.82;5.88;;;15.20;63.20;;;;;;1041229;28;20052;-72
2021/01/06 00:09:08;;;;;;;15.32;6.07;;;15.20;63.20;;;;;;1041105;28;20021;-73
2021/01/06 00:09:39;;;;;;;17.58;6.38;;;15.20;63.30;;;;;;1042366;28;20397;-73
2021/01/06 00:10:13;;;;;;;13.40;6.18;;;15.20;63.30;;;;;;1041309;28;20067;-73
2021/01/06 00:10:53;;;;;;;9.77;5.90;;;15.20;63.00;;;;;;1041430;28;20097;-72
2021/01/06 00:11:35;;;;;;;13.40;6.05;;;15.20;63.40;;;;;;1041457;28;20020;-73
2021/01/06 00:12:08;;;;;;;12.80;5.85;;;15.10;63.10;;;;;;1041052;28;20052;-73
2021/01/06 00:12:41;;;;;;;13.43;6.07;;;15.10;63.20;;;;;;1041063;28;20116;-73
2021/01/06 00:13:17;;;;;;;13.25;5.95;;;15.10;63.40;;;;;;1043528;28;20101;-73
2021/01/06 00:13:50;;;;;;;12.45;5.90;;;15.10;63.50;;;;;;1045098;28;20475;-73
2021/01/06 00:14:21;;;;;;;15.02;6.03;;;15.10;63.50;;;;;;1045250;28;20021;-73
2021/01/06 00:14:52;;;;;;;13.40;5.57;;;15.10;63.50;;;;;;1043611;28;20104;-73
2021/01/06 00:15:28;;;;;;;13.70;6.00;;;15.10;63.60;;;;;;1043222;28;20443;-73
2021/01/06 00:15:59;;;;;;;13.52;5.90;;;15.00;63.70;;;;;;1041276;28;20075;-72
2021/01/06 00:16:31;;;;;;;12.70;6.00;;;15.00;63.70;;;;;;1043405;28;20025;-72
2021/01/06 00:17:02;;;;;;;14.07;5.95;;;15.00;63.80;;;;;;1047173;28;20028;-73
2021/01/06 00:17:33;;;;;;;13.10;5.97;;;15.00;64.00;;;;;;1040945;28;20178;-73
2021/01/06 00:18:05;;;;;;;15.20;6.28;;;15.00;64.10;;;;;;1041159;28;20056;-73
2021/01/06 00:18:36;;;;;;;12.23;6.00;;;15.00;64.50;;;;;;1041746;28;20028;-73
2021/01/06 00:19:09;;;;;;;13.68;5.75;;;14.90;64.70;;;;;;1045209;28;20523;-72
2021/01/06 00:19:40;;;;;;;15.32;5.40;;;14.90;64.60;;;;;;1045172;28;20044;-72
2021/01/06 00:20:12;;;;;;;12.63;5.25;;;14.90;64.70;;;;;;1045444;28;20028;-71
2021/01/06 00:20:44;;;;;;;12.40;5.55;;;14.80;64.90;;;;;;1043529;28;20083;-71
2021/01/06 00:21:16;;;;;;;12.10;5.10;;;14.80;65.00;;;;;;1041031;28;20388;-72
2021/01/06 00:21:47;;;;;;;15.93;5.45;;;14.70;65.20;;;;;;1041015;28;20013;-72
2021/01/06 00:22:18;;;;;;;14.00;5.30;;;14.70;65.40;;;;;;1041278;28;20104;-71
2021/01/06 00:22:50;;;;;;;11.85;4.63;;;14.70;65.70;;;;;;1040908;28;20057;-73
2021/01/06 00:23:22;;;;;;;15.18;4.95;;;14.60;65.90;;;;;;1043062;28;20356;-72
2021/01/06 00:23:53;;;;;;;13.73;4.80;;;14.60;66.00;;;;;;1044174;28;20090;-72
2021/01/06 00:24:24;;;;;;;13.52;5.20;;;14.60;66.00;;;;;;1041526;28;20047;-72
2021/01/06 00:24:56;;;;;;;17.02;4.88;;;14.60;66.10;;;;;;1042127;28;20025;-72
2021/01/06 00:25:30;;;;;;;11.90;4.65;;;14.60;66.20;;;;;;1041405;28;20079;-72
2021/01/06 00:26:02;;;;;;;12.43;4.82;;;14.60;66.30;;;;;;1043960;28;20024;-72
2021/01/06 00:26:35;;;;;;;10.50;4.63;;;14.60;66.30;;;;;;1042379;28;20021;-72
2021/01/06 00:27:06;;;;;;;11.82;4.90;;;14.60;66.40;;;;;;1041483;28;20436;-73
2021/01/06 00:27:38;;;;;;;13.98;5.20;;;14.60;66.40;;;;;;1042201;28;20550;-73
2021/01/06 00:28:15;;;;;;;12.30;4.80;;;14.60;66.50;;;;;;1042726;28;20108;-72
2021/01/06 00:28:46;;;;;;;13.75;4.82;;;14.50;66.50;;;;;;1038650;28;20080;-73
2021/01/06 00:29:17;;;;;;;11.52;4.40;;;14.50;66.50;;;;;;1041963;28;20022;-73
2021/01/06 00:29:49;;;;;;;13.15;5.15;;;14.50;66.50;;;;;;1040303;28;20037;-72
2021/01/06 00:30:23;;;;;;;12.20;4.80;;;14.50;66.70;;;;;;1044860;28;20059;-72
2021/01/06 00:30:59;;;;;;;12.38;4.50;;;14.50;66.90;;;;;;1045305;28;20352;-72
2021/01/06 00:31:39;;;;;;;10.77;4.68;;;14.50;66.90;;;;;;1043582;28;20021;-71
2021/01/06 00:32:12;;;;;;;11.15;4.45;;;14.50;67.00;;;;;;1041382;28;20451;-72
2021/01/06 00:32:43;;;;;;;13.88;4.40;;;14.50;67.00;;;;;;1042260;28;20021;-72
2021/01/06 00:33:19;;;;;;;12.98;4.95;;;14.50;67.10;;;;;;1043077;28;20084;-73
2021/01/06 00:33:50;;;;;;;12.40;4.88;;;14.40;67.20;;;;;;1041861;28;20032;-72
2021/01/06 00:34:21;;;;;;;10.10;4.32;;;14.40;67.20;;;;;;1044406;28;20047;-73
2021/01/06 00:34:53;;;;;;;11.60;4.38;;;14.40;67.20;;;;;;1041215;28;20018;-73
2021/01/06 00:35:26;;;;;;;14.55;4.70;;;14.40;67.30;;;;;;1042855;28;20036;-72
2021/01/06 00:36:04;;;;;;;11.50;4.07;;;14.40;67.40;;;;;;1037349;28;20018;-71
2021/01/06 00:36:36;;;;;;;11.90;4.50;;;14.40;67.40;;;;;;1041214;28;20018;-72
2021/01/06 00:37:07;;;;;;;16.42;4.20;;;14.30;67.40;;;;;;1041188;28;20083;-72
2021/01/06 00:37:39;;;;;;;10.20;4.30;;;14.30;67.40;;;;;;1044731;28;20410;-72
2021/01/06 00:38:10;;;;;;;13.10;4.47;;;14.30;67.40;;;;;;1045119;28;20078;-72
2021/01/06 00:38:41;;;;;;;11.55;4.22;;;14.30;67.50;;;;;;1045117;28;20122;-72
2021/01/06 00:39:13;;;;;;;9.48;4.03;;;14.30;67.50;;;;;;1045236;28;20459;-72
2021/01/06 00:39:44;;;;;;;10.32;4.60;;;14.30;67.50;;;;;;1041548;28;20021;-71
2021/01/06 00:40:19;;;;;;;9.65;4.10;;;14.30;67.70;;;;;;1043047;28;20028;-72
2021/01/06 00:40:51;;;;;;;11.43;4.40;;;14.30;67.70;;;;;;1041104;28;20014;-72
2021/01/06 00:41:40;;;;;;;14.82;4.60;;;14.20;67.60;;;;;;1040832;28;20383;-71
2021/01/06 00:42:11;;;;;;;11.32;4.18;;;14.20;67.60;;;;;;1040328;28;20411;-72
2021/01/06 00:42:43;;;;;;;12.05;4.50;;;14.20;67.60;;;;;;1041059;28;20017;-72
2021/01/06 00:43:17;;;;;;;11.07;4.90;;;14.20;67.90;;;;;;1044036;28;20020;-72
2021/01/06 00:43:52;;;;;;;10.07;4.70;;;14.10;68.00;;;;;;1045056;28;20473;-72
2021/01/06 00:44:23;;;;;;;10.77;4.70;;;14.10;68.00;;;;;;1045390;28;20116;-72
2021/01/06 00:44:54;;;;;;;10.98;4.68;;;14.00;68.20;;;;;;1045429;28;20021;-72
2021/01/06 00:45:27;;;;;;;12.38;4.72;;;14.00;68.30;;;;;;1044793;28;20029;-71
2021/01/06 00:45:58;;;;;;;14.07;4.78;;;14.00;68.50;;;;;;1041165;28;20055;-73
2021/01/06 00:46:32;;;;;;;15.00;5.10;;;14.00;68.40;;;;;;1041316;28;20091;-72
2021/01/06 00:47:04;;;;;;;14.65;4.68;;;13.90;69.10;;;;;;1040918;28;20025;-72
2021/01/06 00:47:35;;;;;;;12.70;4.97;;;13.90;68.50;;;;;;1041212;28;20048;-72
2021/01/06 00:48:07;;;;;;;10.63;4.47;;;13.90;68.50;;;;;;1042877;28;20371;-71
2021/01/06 00:48:38;;;;;;;10.98;4.50;;;13.90;68.60;;;;;;1043945;28;20025;-72
2021/01/06 00:49:09;;;;;;;12.38;4.82;;;13.80;68.60;;;;;;1036799;28;20030;-71
2021/01/06 00:49:41;;;;;;;10.32;4.35;;;13.80;68.90;;;;;;1037372;28;20026;-71
2021/01/06 00:50:13;;;;;;;18.75;4.90;;;13.80;69.10;;;;;;1044859;28;20021;-71
2021/01/06 00:50:45;;;;;;;17.80;4.95;;;13.70;69.30;;;;;;1041535;28;20031;-71
2021/01/06 00:51:16;;;;;;;13.90;4.45;;;13.60;69.40;;;;;;1041059;28;20051;-72
2021/01/06 00:51:49;;;;;;;11.68;4.47;;;13.60;69.40;;;;;;1042063;28;20405;-71
2021/01/06 00:52:22;;;;;;;10.60;4.22;;;13.60;69.60;;;;;;1042123;28;20025;-72
2021/01/06 00:53:05;;;;;;;14.38;4.80;;;13.50;69.90;;;;;;1042152;28;20359;-71
2021/01/06 00:53:37;;;;;;;10.68;4.05;;;13.40;70.10;;;;;;1042520;28;20053;-71
2021/01/06 00:54:08;;;;;;;16.20;4.93;;;13.40;70.20;;;;;;1043827;28;20036;-72
2021/01/06 00:54:40;;;;;;;15.00;4.75;;;13.40;70.40;;;;;;1046202;28;20017;-71
2021/01/06 00:55:12;;;;;;;13.43;4.80;;;13.40;70.60;;;;;;1048554;28;20021;-72
2021/01/06 00:55:46;;;;;;;12.52;4.57;;;13.30;70.70;;;;;;1044819;28;20020;-71
2021/01/06 00:56:30;;;;;;;13.65;5.18;;;13.30;70.80;;;;;;1040931;28;20029;-71
2021/01/06 00:57:01;;;;;;;13.27;4.60;;;13.20;70.90;;;;;;1040442;28;20520;-71
2021/01/06 00:57:32;;;;;;;11.52;4.68;;;13.20;71.70;;;;;;1040184;28;20060;-71
2021/01/06 00:58:04;;;;;;;17.73;5.05;;;13.20;71.20;;;;;;1035203;28;20034;-71
2021/01/06 00:58:35;;;;;;;14.48;4.80;;;13.10;71.20;;;;;;1037776;28;20076;-71
2021/01/06 00:59:07;;;;;;;10.82;4.47;;;13.10;71.30;;;;;;1040665;28;20407;-71
2021/01/06 00:59:38;;;;;;;15.90;4.85;;;13.10;71.50;;;;;;1040901;28;20028;-71
2021/01/06 01:00:15;;;;;;;11.77;4.55;;;13.00;71.60;;;;;;1040940;28;20092;-71
2021/01/06 01:00:47;;;;;;;11.60;4.93;;;13.00;71.90;;;;;;1038011;28;20097;-71
2021/01/06 01:01:18;;;;;;;13.57;4.65;;;12.90;72.10;;;;;;1043386;28;20029;-72
2021/01/06 01:01:49;;;;;;;14.63;4.75;;;12.90;72.20;;;;;;1040921;28;20111;-71
2021/01/06 01:02:21;;;;;;;13.32;4.72;;;12.80;72.20;;;;;;1041164;28;20356;-71
2021/01/06 01:02:52;;;;;;;12.43;4.78;;;12.80;72.30;;;;;;1041153;28;20013;-71
2021/01/06 01:03:24;;;;;;;11.43;4.68;;;12.80;72.40;;;;;;1046318;28;20029;-71
2021/01/06 01:03:56;;;;;;;11.90;5.05;;;12.80;72.40;;;;;;1047748;28;20028;-71
2021/01/06 01:04:27;;;;;;;14.55;4.70;;;12.80;72.40;;;;;;1047025;28;20021;-71
2021/01/06 01:04:59;;;;;;;12.93;4.40;;;12.80;72.40;;;;;;1045322;28;20111;-71
2021/01/06 01:05:33;;;;;;;12.45;4.50;;;12.80;72.50;;;;;;1045463;28;20013;-71
2021/01/06 01:06:05;;;;;;;13.75;4.57;;;12.80;72.40;;;;;;1044940;28;20023;-72
2021/01/06 01:06:36;;;;;;;14.98;5.15;;;12.80;72.40;;;;;;1045022;28;20351;-72
2021/01/06 01:07:08;;;;;;;11.55;4.63;;;12.70;72.50;;;;;;1045116;28;20019;-71
2021/01/06 01:07:39;;;;;;;11.60;5.07;;;12.70;72.60;;;;;;1045007;28;20449;-71
2021/01/06 01:08:11;;;;;;;11.23;5.10;;;12.60;72.70;;;;;;1043306;28;20515;-70
2021/01/06 01:08:42;;;;;;;15.90;4.95;;;12.50;72.80;;;;;;1044908;28;20408;-71
2021/01/06 01:09:13;;;;;;;10.85;4.97;;;12.50;73.00;;;;;;1045322;28;20028;-72
2021/01/06 01:09:45;;;;;;;15.13;5.28;;;12.50;73.20;;;;;;1045201;28;20025;-72
2021/01/06 01:10:31;;;;;;;12.60;5.40;;;12.40;73.10;;;;;;1044841;28;20215;-72
2021/01/06 01:11:02;;;;;;;13.30;5.43;;;12.40;73.40;;;;;;1045161;28;20013;-73
2021/01/06 01:11:38;;;;;;;20.23;5.85;;;12.30;73.60;;;;;;1043875;28;20020;-74
2021/01/06 01:12:12;;;;;;;13.77;5.35;;;12.30;73.70;;;;;;1041550;28;20055;-73
2021/01/06 01:12:43;;;;;;;12.52;5.38;;;12.20;73.80;;;;;;1043011;28;20435;-73
2021/01/06 01:13:16;;;;;;;15.18;5.32;;;12.20;74.00;;;;;;1044332;28;20113;-74
2021/01/06 01:13:48;;;;;;;10.70;4.97;;;12.20;74.20;;;;;;1044516;28;20018;-73
2021/01/06 01:14:19;;;;;;;12.85;5.07;;;12.20;74.30;;;;;;1039635;28;20532;-72
2021/01/06 01:14:51;;;;;;;15.05;5.75;;;12.10;74.30;;;;;;1041303;28;20076;-72
2021/01/06 01:15:24;;;;;;;16.02;5.57;;;12.10;74.40;;;;;;1042261;28;20025;-72
2021/01/06 01:15:57;;;;;;;11.23;5.35;;;12.10;74.50;;;;;;1041994;28;20040;-72
2021/01/06 01:16:29;;;;;;;14.55;5.25;;;12.10;74.50;;;;;;1044332;28;20025;-72
2021/01/06 01:17:02;;;;;;;13.50;5.70;;;12.10;74.50;;;;;;1045046;28;20021;-72
2021/01/06 01:17:34;;;;;;;13.07;5.15;;;12.10;74.60;;;;;;1039094;28;20029;-73
2021/01/06 01:18:07;;;;;;;12.70;5.53;;;12.10;74.60;;;;;;1040063;28;20026;-73
2021/01/06 01:18:39;;;;;;;15.60;5.55;;;12.10;74.60;;;;;;1039314;28;20059;-73
2021/01/06 01:19:11;;;;;;;12.07;5.13;;;12.10;74.60;;;;;;1040178;28;20037;-73
2021/01/06 01:19:42;;;;;;;14.35;5.18;;;12.10;74.50;;;;;;1043044;28;20032;-73
2021/01/06 01:20:15;;;;;;;12.93;5.30;;;12.10;74.50;;;;;;1042388;28;20029;-73
2021/01/06 01:20:55;;;;;;;11.65;5.43;;;12.10;74.50;;;;;;1041579;28;20025;-73
2021/01/06 01:21:31;;;;;;;14.55;5.78;;;12.10;74.40;;;;;;1041171;28;20167;-73
2021/01/06 01:22:02;;;;;;;18.50;5.90;;;12.10;74.20;;;;;;1040784;28;20021;-73
2021/01/06 01:22:33;;;;;;;13.55;5.53;;;12.20;74.70;;;;;;1040961;28;20033;-72
2021/01/06 01:23:05;;;;;;;13.38;5.22;;;12.20;74.10;;;;;;1042744;28;20024;-72
2021/01/06 01:23:36;;;;;;;15.77;5.60;;;12.10;74.10;;;;;;1042788;28;20021;-73
2021/01/06 01:24:08;;;;;;;12.55;5.50;;;12.10;74.30;;;;;;1045117;28;20035;-73
2021/01/06 01:24:39;;;;;;;14.02;5.70;;;12.00;74.30;;;;;;1044451;28;20047;-72
2021/01/06 01:25:23;;;;;;;11.82;5.05;;;12.00;74.40;;;;;;1043527;28;20025;-72
2021/01/06 01:25:57;;;;;;;17.80;6.05;;;12.00;74.50;;;;;;1044469;28;20021;-72
2021/01/06 01:26:28;;;;;;;15.52;5.88;;;11.90;74.70;;;;;;1042182;28;20367;-72
2021/01/06 01:26:59;;;;;;;15.90;5.68;;;11.90;74.90;;;;;;1041627;28;20324;-72
2021/01/06 01:27:31;;;;;;;15.50;5.25;;;11.90;75.10;;;;;;1044451;28;20024;-73
2021/01/06 01:28:02;;;;;;;14.68;5.75;;;11.80;75.10;;;;;;1043932;28;20096;-72
2021/01/06 01:28:33;;;;;;;17.27;5.65;;;11.80;75.30;;;;;;1044148;28;20016;-72
2021/01/06 01:29:05;;;;;;;15.50;5.78;;;11.80;75.50;;;;;;1042548;28;20413;-72
2021/01/06 01:29:37;;;;;;;14.02;5.28;;;11.70;75.40;;;;;;1042916;28;20108;-73
2021/01/06 01:30:12;;;;;;;15.77;5.38;;;11.70;75.60;;;;;;1039490;28;20426;-73
2021/01/06 01:30:44;;;;;;;15.70;5.72;;;11.70;75.70;;;;;;1035681;28;20057;-73
2021/01/06 01:31:15;;;;;;;14.20;5.13;;;11.70;75.80;;;;;;1036639;28;20018;-72
2021/01/06 01:31:47;;;;;;;15.45;5.57;;;11.70;75.80;;;;;;1037034;28;20022;-72
2021/01/06 01:32:18;;;;;;;14.35;5.60;;;11.70;75.80;;;;;;1036472;28;20052;-72
2021/01/06 01:32:50;;;;;;;15.52;5.55;;;11.60;76.00;;;;;;1033301;28;20034;-72
2021/01/06 01:33:26;;;;;;;15.55;6.05;;;11.60;76.10;;;;;;1035185;28;20057;-72
2021/01/06 01:33:57;;;;;;;17.83;5.90;;;11.60;76.20;;;;;;1040233;28;20399;-72
2021/01/06 01:34:29;;;;;;;16.10;6.05;;;11.60;76.20;;;;;;1039815;28;20084;-72
2021/01/06 01:35:03;;;;;;;12.02;5.88;;;11.60;76.30;;;;;;1041095;28;20632;-72
2021/01/06 01:35:35;;;;;;;17.10;5.50;;;11.60;76.40;;;;;;1042428;28;20039;-72
2021/01/06 01:36:06;;;;;;;11.63;5.38;;;11.60;76.50;;;;;;1044745;28;20047;-72
2021/01/06 01:36:38;;;;;;;14.55;6.10;;;11.50;76.60;;;;;;1043555;28;20446;-72
2021/01/06 01:37:09;;;;;;;15.60;5.40;;;11.50;76.60;;;;;;1040805;28;20065;-72
2021/01/06 01:37:45;;;;;;;16.17;6.05;;;11.50;76.70;;;;;;1044277;28;20025;-71
2021/01/06 01:38:20;;;;;;;14.48;6.10;;;11.50;76.80;;;;;;1042689;28;21675;-71
2021/01/06 01:38:51;;;;;;;13.68;5.32;;;11.50;76.90;;;;;;1040788;28;20029;-72
2021/01/06 01:39:22;;;;;;;13.18;5.50;;;11.50;76.80;;;;;;1042392;28;20485;-72
2021/01/06 01:39:54;;;;;;;16.77;5.90;;;11.50;76.80;;;;;;1042191;28;20047;-72
2021/01/06 01:40:32;;;;;;;18.88;5.78;;;11.40;76.80;;;;;;1042158;28;20021;-72
2021/01/06 01:41:10;;;;;;;15.77;5.50;;;11.40;76.80;;;;;;1043458;28;20458;-72
2021/01/06 01:41:41;;;;;;;12.85;5.40;;;11.40;76.90;;;;;;1041027;28;20021;-72
2021/01/06 01:42:13;;;;;;;17.30;5.90;;;11.40;77.00;;;;;;1040543;28;20017;-72
2021/01/06 01:42:44;;;;;;;13.98;5.82;;;11.40;77.10;;;;;;1037594;28;20474;-72
2021/01/06 01:43:19;;;;;;;16.17;5.75;;;11.40;77.70;;;;;;1037351;28;20064;-72
2021/01/06 01:43:51;;;;;;;14.25;5.72;;;11.40;77.10;;;;;;1040697;28;20068;-72
2021/01/06 01:44:23;;;;;;;12.65;5.63;;;11.40;77.20;;;;;;1040819;28;20021;-72
2021/01/06 01:44:59;;;;;;;13.60;5.63;;;11.30;77.20;;;;;;1041814;28;20052;-72
2021/01/06 01:45:45;;;;;;;13.40;5.95;;;11.40;77.20;;;;;;1044164;28;20992;-72
2021/01/06 01:46:36;;;;;;;14.32;5.68;;;11.30;77.20;;;;;;1039873;28;20028;-71
2021/01/06 01:47:17;;;;;;;17.88;5.70;;;11.30;77.30;;;;;;1042057;28;20036;-72
2021/01/06 01:48:01;;;;;;;17.55;5.57;;;11.30;77.90;;;;;;1039092;28;20164;-72
2021/01/06 01:48:44;;;;;;;16.83;6.30;;;11.30;77.30;;;;;;1042678;28;20044;-71
2021/01/06 01:49:26;;;;;;;17.27;5.95;;;11.30;77.50;;;;;;1042065;28;20048;-71
2021/01/06 01:49:58;;;;;;;14.05;5.72;;;11.30;77.60;;;;;;1044759;28;20032;-72
2021/01/06 01:50:30;;;;;;;15.88;5.68;;;11.30;77.70;;;;;;1043904;28;20043;-72
2021/01/06 01:51:28;;;;;;;14.02;5.68;;;11.20;77.70;;;;;;1043185;28;20029;-72
2021/01/06 01:52:14;;;;;;;16.48;6.03;;;11.20;77.70;;;;;;1042467;28;20025;-71
2021/01/06 01:52:52;;;;;;;19.25;6.45;;;11.20;77.80;;;;;;1044756;28;20025;-72
2021/01/06 01:53:34;;;;;;;16.23;6.50;;;11.20;77.90;;;;;;1044116;28;20463;-72
2021/01/06 01:54:13;;;;;;;15.05;6.28;;;11.20;77.80;;;;;;1044410;28;20020;-71
2021/01/06 01:54:45;;;;;;;14.50;6.05;;;11.20;78.10;;;;;;1041078;28;20018;-72
2021/01/06 01:55:20;;;;;;;14.07;6.10;;;11.20;78.10;;;;;;1039446;28;20144;-72
2021/01/06 01:55:52;;;;;;;13.75;6.18;;;11.20;78.10;;;;;;1046411;28;20016;-72
2021/01/06 01:56:31;;;;;;;17.23;6.40;;;11.20;78.20;;;;;;1044794;28;20021;-72
2021/01/06 01:57:19;;;;;;;15.73;6.20;;;11.20;78.20;;;;;;1042366;28;20026;-73
2021/01/06 01:57:55;;;;;;;16.33;6.40;;;11.20;78.10;;;;;;1039895;28;20459;-71
2021/01/06 01:58:28;;;;;;;16.10;6.18;;;11.20;78.70;;;;;;1042917;28;20029;-72
2021/01/06 01:59:05;;;;;;;15.60;5.90;;;11.20;78.20;;;;;;1044936;28;20024;-72
2021/01/06 01:59:42;;;;;;;14.38;5.97;;;11.20;78.30;;;;;;1045009;28;20053;-72
2021/01/06 02:00:21;;;;;;;16.52;5.95;;;11.20;78.30;;;;;;1043236;28;20029;-72
2021/01/06 02:00:56;;;;;;;18.25;6.20;;;11.20;78.30;;;;;;1044785;28;20539;-72
2021/01/06 02:01:27;;;;;;;13.55;5.90;;;11.20;78.30;;;;;;1043985;28;20017;-72
2021/01/06 02:02:03;;;;;;;13.80;5.45;;;11.20;78.20;;;;;;1043635;28;20017;-72
2021/01/06 02:03:01;;;;;;;16.13;5.90;;;11.20;78.10;;;;;;1042539;28;20036;-71
2021/01/06 02:03:58;;;;;;;15.90;5.88;;;11.20;78.10;;;;;;1043602;28;20020;-72
2021/01/06 02:04:41;;;;;;;14.15;5.40;;;11.10;78.10;;;;;;1042874;28;20429;-72
2021/01/06 02:05:17;;;;;;;13.75;5.85;;;11.10;78.20;;;;;;1044828;28;20012;-72
2021/01/06 02:06:00;;;;;;;11.68;5.18;;;11.10;78.30;;;;;;1044833;28;20013;-72
2021/01/06 02:06:42;;;;;;;16.10;5.68;;;11.00;78.40;;;;;;1045079;28;20020;-72
2021/01/06 02:07:21;;;;;;;12.20;5.85;;;11.10;78.50;;;;;;1044696;28;20380;-72
2021/01/06 02:08:26;;;;;;;17.20;6.13;;;11.10;78.50;;;;;;1044756;28;20438;-72
2021/01/06 02:09:02;;;;;;;13.85;6.00;;;11.00;78.50;;;;;;1040374;28;20034;-71
2021/01/06 02:10:03;;;;;;;14.65;5.70;;;11.00;78.30;;;;;;1043929;28;20064;-72
2021/01/06 02:10:35;;;;;;;;;;;11.00;78.50;;;;;;1036724;28;20497;-72
2021/01/06 02:11:27;;;;;;;14.60;6.28;;;11.00;78.40;;;;;;1040240;28;19967;-72
2021/01/06 02:12:15;;;;;;;13.23;5.60;;;11.00;78.50;;;;;;1043244;28;20025;-72
2021/01/06 02:12:59;;;;;;;16.48;5.30;;;11.00;78.60;;;;;;1042476;28;20017;-71
2021/01/06 02:13:33;;;;;;;13.32;5.88;;;11.00;78.50;;;;;;1041904;28;20036;-72
2021/01/06 02:14:39;;;;;;;15.23;6.28;;;11.00;78.50;;;;;;1041459;28;20026;-71
2021/01/06 02:15:28;;;;;;;13.25;5.78;;;11.00;78.60;;;;;;1041678;28;20068;-72
2021/01/06 02:16:33;;;;;;;13.85;6.03;;;10.90;78.70;;;;;;1043276;28;20029;-72
2021/01/06 02:17:12;;;;;;;12.73;6.00;;;10.90;78.90;;;;;;1038433;28;20021;-73
2021/01/06 02:17:43;;;;;;;13.45;5.78;;;10.90;78.90;;;;;;1041326;28;20471;-72
2021/01/06 02:18:16;;;;;;;13.27;6.13;;;10.90;78.80;;;;;;1044640;28;20075;-72
2021/01/06 02:18:48;;;;;;;14.00;5.63;;;10.90;78.80;;;;;;1044850;28;20508;-71
2021/01/06 02:19:24;;;;;;;15.98;6.45;;;10.90;78.80;;;;;;1039958;28;20475;-72
2021/01/06 02:19:55;;;;;;;19.27;7.25;;;10.90;78.80;;;;;;1041419;28;20072;-72
2021/01/06 02:20:27;;;;;;;19.15;7.65;;;10.90;78.80;;;;;;1044894;28;20017;-72
2021/01/06 02:21:06;;;;;;;17.17;6.10;;;10.90;78.90;;;;;;1044896;28;20133;-72
2021/01/06 02:21:37;;;;;;;14.25;5.82;;;10.90;78.80;;;;;;1042639;28;20024;-71
2021/01/06 02:22:16;;;;;;;13.30;5.90;;;10.90;78.80;;;;;;1042474;28;20154;-71
2021/01/06 02:22:48;;;;;;;17.02;6.22;;;10.90;78.80;;;;;;1044757;28;20029;-72
2021/01/06 02:23:19;;;;;;;14.73;5.97;;;10.90;78.80;;;;;;1044282;28;20486;-71
2021/01/06 02:23:53;;;;;;;16.17;6.22;;;10.90;78.90;;;;;;1044310;28;20017;-71
2021/01/06 02:24:25;;;;;;;17.63;6.20;;;10.90;79.10;;;;;;1042349;28;20033;-74
2021/01/06 02:24:56;;;;;;;15.05;6.20;;;10.90;79.20;;;;;;1036442;28;20040;-71
2021/01/06 02:25:29;;;;;;;15.30;5.75;;;10.90;79.30;;;;;;1035654;28;20061;-72
2021/01/06 02:26:01;;;;;;;15.60;5.80;;;10.90;79.30;;;;;;1034240;28;20392;-72
2021/01/06 02:26:34;;;;;;;19.70;6.90;;;10.90;79.20;;;;;;1038467;28;20034;-72
2021/01/06 02:27:06;;;;;;;19.38;6.63;;;10.90;79.20;;;;;;1044173;28;20025;-72
2021/01/06 02:27:38;;;;;;;14.85;5.60;;;10.90;79.00;;;;;;1044461;28;20017;-72
2021/01/06 02:28:09;;;;;;;16.13;6.20;;;11.00;78.90;;;;;;1044832;28;20031;-72
2021/01/06 02:28:41;;;;;;;12.43;5.60;;;11.00;78.80;;;;;;1041500;28;20013;-72
2021/01/06 02:29:12;;;;;;;16.55;6.30;;;11.00;78.70;;;;;;1044618;28;20462;-73
2021/01/06 02:29:44;;;;;;;15.82;6.03;;;11.00;78.60;;;;;;1042156;28;20431;-72
2021/01/06 02:30:17;;;;;;;15.52;6.03;;;11.00;78.50;;;;;;1043297;28;20111;-72
2021/01/06 02:30:48;;;;;;;12.35;5.63;;;11.00;78.60;;;;;;1045596;28;20017;-72
2021/01/06 02:31:20;;;;;;;17.63;5.82;;;11.00;78.60;;;;;;1048883;28;20032;-73
2021/01/06 02:31:52;;;;;;;13.30;6.38;;;11.00;78.60;;;;;;1047156;28;20021;-72
2021/01/06 02:32:24;;;;;;;16.20;6.18;;;11.00;78.70;;;;;;1044825;28;20017;-72
2021/01/06 02:32:56;;;;;;;15.40;5.95;;;10.90;78.70;;;;;;1043704;28;20021;-73
2021/01/06 02:33:29;;;;;;;15.73;5.85;;;10.90;78.70;;;;;;1043853;28;20070;-73
2021/01/06 02:34:01;;;;;;;14.60;5.85;;;10.90;78.80;;;;;;1041786;28;20071;-73
2021/01/06 02:34:38;;;;;;;16.95;6.35;;;10.90;78.80;;;;;;1042799;28;20028;-72
2021/01/06 02:35:12;;;;;;;14.40;6.70;;;10.90;78.90;;;;;;1044711;28;20055;-72
2021/01/06 02:35:43;;;;;;;15.25;5.90;;;10.90;78.90;;;;;;1044682;28;20059;-74
2021/01/06 02:36:15;;;;;;;17.38;6.90;;;10.90;79.10;;;;;;1044587;28;20082;-72
2021/01/06 02:36:48;;;;;;;14.77;5.88;;;10.90;79.10;;;;;;1043498;28;20108;-71
2021/01/06 02:37:19;;;;;;;15.90;6.53;;;10.80;79.20;;;;;;1042744;28;20017;-72
2021/01/06 02:37:51;;;;;;;13.60;6.03;;;10.80;79.30;;;;;;1041988;28;20112;-71
2021/01/06 02:38:23;;;;;;;16.98;5.70;;;10.80;79.30;;;;;;1042440;28;20347;-71
2021/01/06 02:38:55;;;;;;;15.45;5.78;;;10.80;79.40;;;;;;1043961;28;20028;-71
2021/01/06 02:39:26;;;;;;;13.80;5.60;;;10.80;79.40;;;;;;1044664;28;20025;-71
2021/01/06 02:39:58;;;;;;;14.82;6.25;;;10.80;79.40;;;;;;1041783;28;20041;-71
2021/01/06 02:40:29;;;;;;;12.43;5.55;;;10.80;79.50;;;;;;1042503;28;20032;-72
2021/01/06 02:41:01;;;;;;;15.07;5.93;;;10.80;79.60;;;;;;1042345;28;20013;-73
2021/01/06 02:41:33;;;;;;;18.10;6.45;;;10.70;79.60;;;;;;1042981;28;20013;-72
2021/01/06 02:42:06;;;;;;;12.77;5.93;;;10.80;79.50;;;;;;1042395;28;20024;-72
2021/01/06 02:42:38;;;;;;;13.45;5.43;;;10.80;79.40;;;;;;1042227;28;20096;-72
2021/01/06 02:43:11;;;;;;;15.25;5.95;;;10.80;80.00;;;;;;1043187;28;20420;-72
2021/01/06 02:43:43;;;;;;;14.48;5.80;;;10.70;79.40;;;;;;1044627;28;20493;-72
2021/01/06 02:44:16;;;;;;;15.68;5.65;;;10.70;79.50;;;;;;1044613;28;20016;-72
2021/01/06 02:44:48;;;;;;;13.15;5.43;;;10.70;79.50;;;;;;1044701;28;20100;-73
2021/01/06 02:45:20;;;;;;;16.85;6.22;;;10.70;79.50;;;;;;1044306;28;20378;-72
2021/01/06 02:45:52;;;;;;;15.20;5.63;;;10.70;79.60;;;;;;1043810;28;20013;-72
2021/01/06 02:46:24;;;;;;;14.77;5.35;;;10.70;79.60;;;;;;1043923;28;20528;-74
2021/01/06 02:46:56;;;;;;;15.07;5.30;;;10.70;79.60;;;;;;1042238;28;20021;-74
2021/01/06 02:47:27;;;;;;;14.38;6.38;;;10.70;79.70;;;;;;1043644;28;20027;-72
2021/01/06 02:47:59;;;;;;;16.23;5.72;;;10.70;79.60;;;;;;1041144;28;20017;-72
2021/01/06 02:48:37;;;;;;;12.43;5.63;;;10.70;79.70;;;;;;1042845;28;20013;-73
2021/01/06 02:49:09;;;;;;;14.52;6.07;;;10.70;79.80;;;;;;1041514;28;20025;-72
2021/01/06 02:49:45;;;;;;;19.40;6.00;;;10.70;79.80;;;;;;1042457;28;20347;-71
2021/01/06 02:50:24;;;;;;;14.88;5.15;;;10.70;79.80;;;;;;1045195;28;20451;-72
2021/01/06 02:50:59;;;;;;;14.82;5.45;;;10.70;79.80;;;;;;1043886;28;20017;-72
2021/01/06 02:52:15;;;;;;;12.43;5.43;;;10.70;79.80;;;;;;1042715;28;20039;-72
2021/01/06 02:52:56;;;;;;;16.13;5.40;;;10.70;79.90;;;;;;1023805;28;20062;-72
2021/01/06 02:53:52;;;;;;;18.85;6.10;;;10.70;79.90;;;;;;1026296;28;20110;-72
2021/01/06 02:54:32;;;;;;;12.95;5.57;;;10.70;80.10;;;;;;1020791;28;20629;-72
2021/01/06 02:55:09;;;;;;;18.90;5.65;;;10.70;80.00;;;;;;1021067;28;20110;-72
2021/01/06 02:55:41;;;;;;;16.50;5.80;;;10.70;80.10;;;;;;1022299;28;20513;-72
2021/01/06 02:56:18;;;;;;;14.50;5.63;;;10.70;80.10;;;;;;1018197;29;20119;-73
2021/01/06 02:56:53;;;;;;;12.68;5.75;;;10.70;80.20;;;;;;1021999;28;20385;-72
2021/01/06 02:57:30;;;;;;;13.95;5.47;;;10.60;80.20;;;;;;1019283;29;20118;-73
2021/01/06 02:58:13;;;;;;;19.38;6.00;;;10.60;80.10;;;;;;1017037;29;20416;-73